Time;durP1;ratioP1;P1;durP2;ratioP2;P2;SDS_P1;SDS_P2;PMS_P1;PMS_P2;Temp;Humidity;BMP_temperature;BMP_pressure;BME280_temperature;BME280_humidity;BME280_pressure;Samples;Min_cycle;Max_cycle;Signal;HPM_P1;HPM_P2
2023/05/12 00:00:23;;;;;;;;;;;;;;;;;;5035331;28;20007;-22
2023/05/12 00:02:49;;;;;;;;;;;;;;;;;;5035171;28;19917;-21
2023/05/12 00:05:15;;;;;;;;;;;;;;;;;;5035566;28;19913;-21
2023/05/12 00:07:41;;;;;;;;;;;;;;;;;;5035177;28;20388;-21
2023/05/12 00:10:07;;;;;;;;;;;;;;;;;;5034952;28;20264;-21
2023/05/12 00:12:33;;;;;;;;;;;;;;;;;;5034971;28;19909;-22
2023/05/12 00:14:59;;;;;;;;;;;;;;;;;;5035010;28;19911;-22
2023/05/12 00:17:26;;;;;;;;;;;;;;;;;;5035157;28;20331;-21
2023/05/12 00:19:52;;;;;;;;;;;;;;;;;;5035023;28;20372;-22
2023/05/12 00:22:18;;;;;;;;;;;;;;;;;;5035068;28;19992;-22
2023/05/12 00:24:44;;;;;;;;;;;;;;;;;;5033786;28;20367;-21
2023/05/12 00:27:10;;;;;;;;;;;;;;;;;;5034799;28;19979;-21
2023/05/12 00:29:36;;;;;;;;;;;;;;;;;;5034668;28;19913;-21
2023/05/12 00:32:02;;;;;;;;;;;;;;;;;;5034728;28;19995;-21
2023/05/12 00:34:28;;;;;;;;;;;;;;;;;;5033776;28;20254;-22
2023/05/12 00:36:54;;;;;;;;;;;;;;;;;;5034770;28;19913;-21
2023/05/12 00:39:20;;;;;;;;;;;;;;;;;;5034635;28;19909;-22
2023/05/12 00:41:46;;;;;;;;;;;;;;;;;;5033538;28;19917;-20
2023/05/12 00:44:12;;;;;;;;;;;;;;;;;;5033613;28;20259;-21
2023/05/12 00:46:38;;;;;;;;;;;;;;;;;;5034774;28;19909;-22
2023/05/12 00:49:04;;;;;;;;;;;;;;;;;;5034702;28;20364;-21
2023/05/12 00:51:30;;;;;;;;;;;;;;;;;;5034786;28;20221;-21
2023/05/12 00:53:56;;;;;;;;;;;;;;;;;;5034446;28;20251;-22
2023/05/12 00:56:22;;;;;;;;;;;;;;;;;;5034459;28;19909;-20
2023/05/12 00:58:48;;;;;;;;;;;;;;;;;;5034409;28;20008;-20
2023/05/12 01:01:14;;;;;;;;;;;;;;;;;;5034611;28;19913;-21
2023/05/12 01:03:40;;;;;;;;;;;;;;;;;;5034121;28;19921;-20
2023/05/12 01:06:06;;;;;;;;;;;;;;;;;;5034544;28;20390;-22
2023/05/12 01:08:32;;;;;;;;;;;;;;;;;;5034257;28;19913;-21
2023/05/12 01:10:58;;;;;;;;;;;;;;;;;;5034318;28;19909;-21
2023/05/12 01:13:24;;;;;;;;;;;;;;;;;;5034157;28;20336;-20
2023/05/12 01:15:50;;;;;;;;;;;;;;;;;;5033237;28;19917;-22
2023/05/12 01:18:16;;;;;;;;;;;;;;;;;;5034530;28;19920;-22
2023/05/12 01:20:43;;;;;;;;;;;;;;;;;;5034200;28;19917;-21
2023/05/12 01:23:09;;;;;;;;;;;;;;;;;;5034409;28;19936;-22
2023/05/12 01:25:35;;;;;;;;;;;;;;;;;;5034407;28;20359;-21
2023/05/12 01:28:01;;;;;;;;;;;;;;;;;;5034162;28;19971;-20
2023/05/12 01:30:27;;;;;;;;;;;;;;;;;;5034344;28;19917;-21
2023/05/12 01:32:53;;;;;;;;;;;;;;;;;;5034161;28;19920;-22
2023/05/12 01:35:19;;;;;;;;;;;;;;;;;;5034397;28;19992;-22
2023/05/12 01:37:45;;;;;;;;;;;;;;;;;;5038050;28;20344;-22
2023/05/12 01:40:11;;;;;;;;;;;;;;;;;;5038016;28;19909;-21
2023/05/12 01:42:37;;;;;;;;;;;;;;;;;;5038086;28;19959;-21
2023/05/12 01:45:03;;;;;;;;;;;;;;;;;;5037904;28;19970;-21
2023/05/12 01:47:29;;;;;;;;;;;;;;;;;;5038074;28;20009;-22
2023/05/12 01:49:55;;;;;;;;;;;;;;;;;;5036860;28;19917;-23
2023/05/12 01:52:21;;;;;;;;;;;;;;;;;;5037683;28;20004;-21
2023/05/12 01:54:47;;;;;;;;;;;;;;;;;;5037919;28;19920;-21
2023/05/12 01:57:13;;;;;;;;;;;;;;;;;;5037647;28;19924;-21
2023/05/12 01:59:39;;;;;;;;;;;;;;;;;;5037809;28;19909;-20
2023/05/12 02:02:04;;;;;;;;;;;;;;;;;;5037473;28;19916;-23
2023/05/12 02:04:30;;;;;;;;;;;;;;;;;;5036426;28;19929;-22
2023/05/12 02:06:56;;;;;;;;;;;;;;;;;;5036406;28;20011;-21
2023/05/12 02:09:22;;;;;;;;;;;;;;;;;;5037346;28;20027;-21
2023/05/12 02:11:49;;;;;;;;;;;;;;;;;;5037290;28;19913;-22
2023/05/12 02:14:15;;;;;;;;;;;;;;;;;;5037307;28;20255;-19
2023/05/12 02:16:41;;;;;;;;;;;;;;;;;;5037584;28;19909;-21
2023/05/12 02:19:07;;;;;;;;;;;;;;;;;;5037209;28;19948;-21
2023/05/12 02:21:33;;;;;;;;;;;;;;;;;;5037216;28;19936;-22
2023/05/12 02:23:59;;;;;;;;;;;;;;;;;;5036965;28;20340;-21
2023/05/12 02:26:25;;;;;;;;;;;;;;;;;;5037311;28;19924;-21
2023/05/12 02:28:51;;;;;;;;;;;;;;;;;;5037287;28;19982;-20
2023/05/12 02:31:17;;;;;;;;;;;;;;;;;;5037038;28;19916;-20
2023/05/12 02:33:43;;;;;;;;;;;;;;;;;;5037131;28;19909;-24
2023/05/12 02:36:09;;;;;;;;;;;;;;;;;;5036898;28;20006;-22
2023/05/12 02:38:35;;;;;;;;;;;;;;;;;;5036851;28;19971;-21
2023/05/12 02:41:01;;;;;;;;;;;;;;;;;;5035767;28;19999;-20
2023/05/12 02:43:27;;;;;;;;;;;;;;;;;;5036830;28;20008;-21
2023/05/12 02:45:53;;;;;;;;;;;;;;;;;;5036936;28;19917;-21
2023/05/12 02:48:19;;;;;;;;;;;;;;;;;;5035694;28;19909;-21
2023/05/12 02:50:45;;;;;;;;;;;;;;;;;;5036870;28;19925;-21
2023/05/12 02:53:10;;;;;;;;;;;;;;;;;;5036598;28;19916;-21
2023/05/12 02:55:36;;;;;;;;;;;;;;;;;;5036570;28;19920;-20
2023/05/12 02:58:02;;;;;;;;;;;;;;;;;;5036565;28;20382;-22
2023/05/12 03:00:28;;;;;;;;;;;;;;;;;;5036468;28;20040;-21
2023/05/12 03:02:54;;;;;;;;;;;;;;;;;;5036430;28;19924;-21
2023/05/12 03:05:20;;;;;;;;;;;;;;;;;;5036672;28;19995;-20
2023/05/12 03:07:47;;;;;;;;;;;;;;;;;;5036351;28;20028;-20
2023/05/12 03:10:13;;;;;;;;;;;;;;;;;;5036279;28;19917;-21
2023/05/12 03:12:39;;;;;;;;;;;;;;;;;;5036279;28;19910;-22
2023/05/12 03:15:05;;;;;;;;;;;;;;;;;;5036151;28;19997;-21
2023/05/12 03:17:31;;;;;;;;;;;;;;;;;;5036408;28;20225;-21
2023/05/12 03:19:57;;;;;;;;;;;;;;;;;;5036126;28;19967;-21
2023/05/12 03:22:23;;;;;;;;;;;;;;;;;;5036209;28;19910;-20
2023/05/12 03:24:49;;;;;;;;;;;;;;;;;;5036292;28;19909;-21
2023/05/12 03:27:15;;;;;;;;;;;;;;;;;;5036006;28;19935;-22
2023/05/12 03:29:41;;;;;;;;;;;;;;;;;;5035861;28;19913;-20
2023/05/12 03:32:07;;;;;;;;;;;;;;;;;;5036269;28;19920;-21
2023/05/12 03:34:33;;;;;;;;;;;;;;;;;;5035842;28;20324;-21
2023/05/12 03:36:59;;;;;;;;;;;;;;;;;;5035961;28;19916;-20
2023/05/12 03:39:25;;;;;;;;;;;;;;;;;;5035751;28;19913;-21
2023/05/12 03:41:51;;;;;;;;;;;;;;;;;;5035564;28;19909;-21
2023/05/12 03:44:17;;;;;;;;;;;;;;;;;;5035512;28;19955;-20
2023/05/12 03:46:43;;;;;;;;;;;;;;;;;;5035838;28;19933;-21
2023/05/12 03:49:09;;;;;;;;;;;;;;;;;;5035393;28;19964;-20
2023/05/12 03:51:35;;;;;;;;;;;;;;;;;;5035389;28;19913;-20
2023/05/12 03:54:01;;;;;;;;;;;;;;;;;;5035311;28;19974;-21
2023/05/12 03:56:28;;;;;;;;;;;;;;;;;;5035212;28;20263;-22
2023/05/12 03:58:54;;;;;;;;;;;;;;;;;;5035171;28;20252;-21
2023/05/12 04:01:20;;;;;;;;;;;;;;;;;;5035173;28;19909;-21
2023/05/12 04:03:46;;;;;;;;;;;;;;;;;;5034841;28;19956;-20
2023/05/12 04:06:12;;;;;;;;;;;;;;;;;;5035153;28;20252;-21
2023/05/12 04:08:38;;;;;;;;;;;;;;;;;;5035245;28;19916;-21
2023/05/12 04:11:04;;;;;;;;;;;;;;;;;;5034772;28;19928;-21
2023/05/12 04:13:30;;;;;;;;;;;;;;;;;;5034476;28;19909;-21
2023/05/12 04:15:56;;;;;;;;;;;;;;;;;;5034751;28;19916;-22
2023/05/12 04:18:22;;;;;;;;;;;;;;;;;;5034676;28;19919;-21
2023/05/12 04:20:48;;;;;;;;;;;;;;;;;;5034706;28;19999;-20
2023/05/12 04:23:14;;;;;;;;;;;;;;;;;;5034668;28;19921;-21
2023/05/12 04:25:40;;;;;;;;;;;;;;;;;;5034562;28;19913;-20
2023/05/12 04:28:06;;;;;;;;;;;;;;;;;;5034665;28;20280;-21
2023/05/12 04:30:32;;;;;;;;;;;;;;;;;;5034448;28;19924;-21
2023/05/12 04:32:58;;;;;;;;;;;;;;;;;;5034599;28;19916;-21
2023/05/12 04:35:24;;;;;;;;;;;;;;;;;;5034548;28;19917;-21
2023/05/12 04:37:50;;;;;;;;;;;;;;;;;;5034258;28;19909;-21
2023/05/12 04:40:16;;;;;;;;;;;;;;;;;;5034074;28;19960;-22
2023/05/12 04:42:42;;;;;;;;;;;;;;;;;;5033946;28;19909;-21
2023/05/12 04:45:08;;;;;;;;;;;;;;;;;;5034482;28;19909;-21
2023/05/12 04:47:34;;;;;;;;;;;;;;;;;;5034397;28;20387;-21
2023/05/12 04:50:00;;;;;;;;;;;;;;;;;;5033411;28;19917;-21
2023/05/12 04:52:26;;;;;;;;;;;;;;;;;;5033168;28;20035;-21
2023/05/12 04:54:52;;;;;;;;;;;;;;;;;;5034124;28;19920;-23
2023/05/12 04:57:18;;;;;;;;;;;;;;;;;;5034194;28;19991;-22
2023/05/12 04:59:44;;;;;;;;;;;;;;;;;;5034087;28;19917;-20
2023/05/12 05:02:10;;;;;;;;;;;;;;;;;;5033838;28;19909;-20
2023/05/12 05:04:36;;;;;;;;;;;;;;;;;;5033701;28;20340;-21
2023/05/12 05:07:02;;;;;;;;;;;;;;;;;;5033937;28;19939;-21
2023/05/12 05:09:28;;;;;;;;;;;;;;;;;;5033856;28;19948;-21
2023/05/12 05:11:54;;;;;;;;;;;;;;;;;;5036751;28;19975;-22
2023/05/12 05:14:20;;;;;;;;;;;;;;;;;;5037170;28;19921;-20
2023/05/12 05:16:47;;;;;;;;;;;;;;;;;;5038192;28;19909;-20
2023/05/12 05:19:13;;;;;;;;;;;;;;;;;;5038508;28;19909;-20
2023/05/12 05:21:39;;;;;;;;;;;;;;;;;;5037113;28;20240;-21
2023/05/12 05:24:05;;;;;;;;;;;;;;;;;;5037884;28;20007;-21
2023/05/12 05:26:31;;;;;;;;;;;;;;;;;;5037932;28;19909;-22
2023/05/12 05:28:57;;;;;;;;;;;;;;;;;;5037841;28;20358;-20
2023/05/12 05:31:23;;;;;;;;;;;;;;;;;;5037835;28;19999;-21
2023/05/12 05:33:49;;;;;;;;;;;;;;;;;;5036499;28;19909;-21
2023/05/12 05:36:15;;;;;;;;;;;;;;;;;;5037594;28;20006;-22
2023/05/12 05:38:41;;;;;;;;;;;;;;;;;;5038066;28;20244;-22
2023/05/12 05:41:07;;;;;;;;;;;;;;;;;;5037507;28;19967;-22
2023/05/12 05:43:33;;;;;;;;;;;;;;;;;;5037394;28;19909;-21
2023/05/12 05:45:59;;;;;;;;;;;;;;;;;;5037596;28;20283;-21
2023/05/12 05:48:25;;;;;;;;;;;;;;;;;;5037802;28;19913;-22
2023/05/12 05:50:51;;;;;;;;;;;;;;;;;;5037775;28;19913;-21
2023/05/12 05:53:17;;;;;;;;;;;;;;;;;;5037300;28;19920;-22
2023/05/12 05:55:43;;;;;;;;;;;;;;;;;;5037366;28;19909;-22
2023/05/12 05:58:09;;;;;;;;;;;;;;;;;;5037489;28;19909;-21
2023/05/12 06:00:35;;;;;;;;;;;;;;;;;;5037576;28;19924;-20
2023/05/12 06:03:01;;;;;;;;;;;;;;;;;;5036944;28;19917;-22
2023/05/12 06:05:27;;;;;;;;;;;;;;;;;;5037339;28;19977;-22
2023/05/12 06:07:53;;;;;;;;;;;;;;;;;;5037397;28;19917;-21
2023/05/12 06:10:19;;;;;;;;;;;;;;;;;;5037298;28;20027;-20
2023/05/12 06:12:45;;;;;;;;;;;;;;;;;;5037328;28;19932;-21
2023/05/12 06:15:11;;;;;;;;;;;;;;;;;;5036942;28;19916;-22
2023/05/12 06:17:37;;;;;;;;;;;;;;;;;;5036570;28;19967;-21
2023/05/12 06:20:04;;;;;;;;;;;;;;;;;;5036199;28;20000;-21
2023/05/12 06:22:30;;;;;;;;;;;;;;;;;;5035732;28;19909;-24
2023/05/12 06:24:56;;;;;;;;;;;;;;;;;;5036228;28;20000;-23
2023/05/12 06:27:22;;;;;;;;;;;;;;;;;;5035956;28;20231;-20
2023/05/12 06:29:47;;;;;;;;;;;;;;;;;;5035854;28;19940;-20
2023/05/12 06:32:13;;;;;;;;;;;;;;;;;;5036380;28;20042;-21
2023/05/12 06:34:39;;;;;;;;;;;;;;;;;;5035887;28;19916;-21
2023/05/12 06:37:05;;;;;;;;;;;;;;;;;;5036341;28;19995;-22
2023/05/12 06:39:31;;;;;;;;;;;;;;;;;;5036228;28;19909;-21
2023/05/12 06:41:57;;;;;;;;;;;;;;;;;;5036365;28;20336;-20
2023/05/12 06:44:23;;;;;;;;;;;;;;;;;;5036382;28;20248;-22
2023/05/12 06:46:49;;;;;;;;;;;;;;;;;;5036578;28;19921;-20
2023/05/12 06:49:15;;;;;;;;;;;;;;;;;;5036385;28;19948;-23
2023/05/12 06:51:41;;;;;;;;;;;;;;;;;;5036311;28;20011;-22
2023/05/12 06:54:07;;;;;;;;;;;;;;;;;;5036222;28;20264;-29
2023/05/12 06:56:33;;;;;;;;;;;;;;;;;;5036257;28;19953;-21
2023/05/12 06:59:01;;;;;;;;;;;;;;;;;;5036410;28;19913;-21
2023/05/12 07:01:27;;;;;;;;;;;;;;;;;;5036393;28;19909;-23
2023/05/12 07:03:53;;;;;;;;;;;;;;;;;;5034868;28;20236;-22
2023/05/12 07:06:19;;;;;;;;;;;;;;;;;;5036206;28;19920;-22
2023/05/12 07:08:45;;;;;;;;;;;;;;;;;;5036192;28;19913;-18
2023/05/12 07:11:11;;;;;;;;;;;;;;;;;;5036068;28;19964;-20
2023/05/12 07:13:37;;;;;;;;;;;;;;;;;;5036002;28;19978;-21
2023/05/12 07:16:03;;;;;;;;;;;;;;;;;;5035933;28;19909;-22
2023/05/12 07:18:29;;;;;;;;;;;;;;;;;;5036148;28;19909;-20
2023/05/12 07:20:55;;;;;;;;;;;;;;;;;;5035835;28;19913;-21
2023/05/12 07:23:21;;;;;;;;;;;;;;;;;;5035793;28;20007;-21
2023/05/12 07:25:47;;;;;;;;;;;;;;;;;;5035779;28;19958;-21
2023/05/12 07:28:13;;;;;;;;;;;;;;;;;;5034678;28;19910;-22
2023/05/12 07:30:39;;;;;;;;;;;;;;;;;;5034508;28;19924;-21
2023/05/12 07:33:05;;;;;;;;;;;;;;;;;;5035352;28;19956;-21
2023/05/12 07:35:31;;;;;;;;;;;;;;;;;;5034176;28;20259;-23
2023/05/12 07:37:57;;;;;;;;;;;;;;;;;;5034598;28;19996;-22
2023/05/12 07:40:23;;;;;;;;;;;;;;;;;;5035625;28;20277;-22
2023/05/12 07:42:49;;;;;;;;;;;;;;;;;;5035239;28;20000;-21
2023/05/12 07:45:21;;;;;;;;;;;;;;;;;;5035301;28;19913;-20
2023/05/12 07:47:47;;;;;;;;;;;;;;;;;;5035363;28;19995;-20
2023/05/12 07:50:14;;;;;;;;;;;;;;;;;;5034801;28;20000;-20
2023/05/12 07:52:40;;;;;;;;;;;;;;;;;;5034908;28;19909;-22
2023/05/12 07:55:06;;;;;;;;;;;;;;;;;;5033919;28;19909;-22
2023/05/12 07:57:32;;;;;;;;;;;;;;;;;;5034925;28;19909;-22
2023/05/12 07:59:58;;;;;;;;;;;;;;;;;;5035275;28;19917;-20
2023/05/12 08:02:24;;;;;;;;;;;;;;;;;;5034466;28;20260;-22
2023/05/12 08:04:50;;;;;;;;;;;;;;;;;;5035289;28;19921;-21
2023/05/12 08:07:16;;;;;;;;;;;;;;;;;;5035178;28;19971;-23
2023/05/12 08:09:42;;;;;;;;;;;;;;;;;;5034787;28;19917;-21
2023/05/12 08:12:08;;;;;;;;;;;;;;;;;;5034524;28;20010;-21
2023/05/12 08:14:34;;;;;;;;;;;;;;;;;;5033407;28;19909;-20
2023/05/12 08:17:00;;;;;;;;;;;;;;;;;;5034414;28;20074;-23
2023/05/12 08:19:26;;;;;;;;;;;;;;;;;;5034210;28;19971;-22
2023/05/12 08:21:52;;;;;;;;;;;;;;;;;;5034301;28;20356;-22
2023/05/12 08:24:19;;;;;;;;;;;;;;;;;;5033179;28;20031;-21
2023/05/12 08:26:45;;;;;;;;;;;;;;;;;;5034548;28;20352;-20
2023/05/12 08:29:11;;;;;;;;;;;;;;;;;;5034397;28;19919;-21
2023/05/12 08:31:37;;;;;;;;;;;;;;;;;;5034746;28;20295;-23
2023/05/12 08:34:03;;;;;;;;;;;;;;;;;;5034329;28;19941;-22
2023/05/12 08:36:29;;;;;;;;;;;;;;;;;;5034560;28;19909;-22
2023/05/12 08:38:55;;;;;;;;;;;;;;;;;;5034051;28;20359;-20
2023/05/12 08:41:21;;;;;;;;;;;;;;;;;;5034411;28;19975;-21
2023/05/12 08:43:47;;;;;;;;;;;;;;;;;;5033682;28;19916;-22
2023/05/12 08:46:13;;;;;;;;;;;;;;;;;;5033556;28;20004;-23
2023/05/12 08:48:39;;;;;;;;;;;;;;;;;;5032056;28;19909;-21
2023/05/12 08:51:05;;;;;;;;;;;;;;;;;;5033403;28;20000;-20
2023/05/12 08:53:31;;;;;;;;;;;;;;;;;;5033973;28;19909;-20
2023/05/12 08:55:57;;;;;;;;;;;;;;;;;;5033228;28;19976;-24
2023/05/12 08:58:23;;;;;;;;;;;;;;;;;;5033303;28;19984;-21
2023/05/12 09:00:50;;;;;;;;;;;;;;;;;;5033239;28;19932;-21
2023/05/12 09:03:16;;;;;;;;;;;;;;;;;;5032985;28;19921;-21
2023/05/12 09:05:42;;;;;;;;;;;;;;;;;;5032059;28;19909;-21
2023/05/12 09:08:08;;;;;;;;;;;;;;;;;;5033335;28;19910;-22
2023/05/12 09:10:34;;;;;;;;;;;;;;;;;;5033060;28;19971;-22
2023/05/12 09:13:00;;;;;;;;;;;;;;;;;;5033236;28;20007;-21
2023/05/12 09:15:26;;;;;;;;;;;;;;;;;;5033134;28;19913;-23
2023/05/12 09:17:52;;;;;;;;;;;;;;;;;;5033169;28;20300;-20
2023/05/12 09:20:17;;;;;;;;;;;;;;;;;;5033064;28;19967;-21
2023/05/12 09:22:43;;;;;;;;;;;;;;;;;;5033361;28;20332;-23
2023/05/12 09:25:09;;;;;;;;;;;;;;;;;;5033516;28;20337;-23
2023/05/12 09:27:35;;;;;;;;;;;;;;;;;;5033552;28;20304;-20
2023/05/12 09:30:01;;;;;;;;;;;;;;;;;;5033585;28;19912;-20
2023/05/12 09:32:27;;;;;;;;;;;;;;;;;;5033667;28;19910;-22
2023/05/12 09:34:53;;;;;;;;;;;;;;;;;;5033631;28;19909;-21
2023/05/12 09:37:19;;;;;;;;;;;;;;;;;;5032567;28;19935;-22
2023/05/12 09:39:45;;;;;;;;;;;;;;;;;;5033718;28;19920;-21
2023/05/12 09:42:11;;;;;;;;;;;;;;;;;;5032606;28;19935;-21
2023/05/12 09:44:37;;;;;;;;;;;;;;;;;;5034086;28;20240;-21
2023/05/12 09:47:03;;;;;;;;;;;;;;;;;;5033829;28;19999;-22
2023/05/12 09:49:29;;;;;;;;;;;;;;;;;;5033512;28;19913;-21
2023/05/12 09:51:55;;;;;;;;;;;;;;;;;;5033549;28;19956;-22
2023/05/12 09:54:21;;;;;;;;;;;;;;;;;;5032204;28;20288;-20
2023/05/12 09:56:47;;;;;;;;;;;;;;;;;;5034020;28;19916;-21
2023/05/12 09:59:13;;;;;;;;;;;;;;;;;;5035937;28;19910;-22
2023/05/12 10:01:39;;;;;;;;;;;;;;;;;;5037428;28;19909;-21
2023/05/12 10:04:05;;;;;;;;;;;;;;;;;;5036821;28;20367;-21
2023/05/12 10:06:32;;;;;;;;;;;;;;;;;;5036876;28;20359;-22
2023/05/12 10:08:58;;;;;;;;;;;;;;;;;;5037034;28;20228;-19
2023/05/12 10:11:24;;;;;;;;;;;;;;;;;;5036915;28;19969;-21
2023/05/12 10:13:50;;;;;;;;;;;;;;;;;;5036723;28;19913;-22
2023/05/12 10:16:16;;;;;;;;;;;;;;;;;;5036820;28;20216;-23
2023/05/12 10:18:44;;;;;;;;;;;;;;;;;;5036702;28;20291;-21
2023/05/12 10:21:10;;;;;;;;;;;;;;;;;;5036524;28;19963;-22
2023/05/12 10:23:36;;;;;;;;;;;;;;;;;;5036653;28;19916;-21
2023/05/12 10:26:02;;;;;;;;;;;;;;;;;;5036724;28;19948;-22
2023/05/12 10:28:28;;;;;;;;;;;;;;;;;;5035629;28;19909;-21
2023/05/12 10:30:54;;;;;;;;;;;;;;;;;;5036725;28;19927;-22
2023/05/12 10:33:21;;;;;;;;;;;;;;;;;;5035431;28;20312;-23
2023/05/12 10:35:46;;;;;;;;;;;;;;;;;;5036560;28;19909;-21
2023/05/12 10:38:13;;;;;;;;;;;;;;;;;;5036984;28;19909;-22
2023/05/12 10:40:39;;;;;;;;;;;;;;;;;;5036427;28;19924;-22
2023/05/12 10:43:06;;;;;;;;;;;;;;;;;;5036408;28;20004;-20
2023/05/12 10:45:32;;;;;;;;;;;;;;;;;;5036236;28;19973;-21
2023/05/12 10:47:58;;;;;;;;;;;;;;;;;;5035192;28;19909;-21
2023/05/12 10:50:24;;;;;;;;;;;;;;;;;;5035100;28;19992;-23
2023/05/12 10:52:50;;;;;;;;;;;;;;;;;;5036056;28;20284;-23
2023/05/12 10:55:17;;;;;;;;;;;;;;;;;;5036201;28;19909;-22
2023/05/12 10:57:43;;;;;;;;;;;;;;;;;;5036325;28;20004;-21
2023/05/12 11:00:09;;;;;;;;;;;;;;;;;;5034784;28;20340;-20
2023/05/12 11:02:36;;;;;;;;;;;;;;;;;;5035639;28;19909;-19
2023/05/12 11:05:03;;;;;;;;;;;;;;;;;;5035954;28;19913;-21
2023/05/12 11:07:29;;;;;;;;;;;;;;;;;;5035553;28;19909;-21
2023/05/12 11:09:55;;;;;;;;;;;;;;;;;;5034363;28;19916;-21
2023/05/12 11:12:21;;;;;;;;;;;;;;;;;;5034378;28;19910;-21
2023/05/12 11:14:47;;;;;;;;;;;;;;;;;;5035416;28;19932;-21
2023/05/12 11:17:13;;;;;;;;;;;;;;;;;;5034416;28;20244;-21
2023/05/12 11:19:39;;;;;;;;;;;;;;;;;;5035519;28;19909;-21
2023/05/12 11:22:08;;;;;;;;;;;;;;;;;;5035493;28;19920;-20
2023/05/12 11:24:34;;;;;;;;;;;;;;;;;;5035664;28;20287;-21
2023/05/12 11:27:00;;;;;;;;;;;;;;;;;;5034573;28;19918;-21
2023/05/12 11:29:26;;;;;;;;;;;;;;;;;;5034821;28;19913;-21
2023/05/12 11:31:52;;;;;;;;;;;;;;;;;;5034454;28;19909;-21
2023/05/12 11:34:18;;;;;;;;;;;;;;;;;;5035741;28;20251;-21
2023/05/12 11:36:45;;;;;;;;;;;;;;;;;;5035625;28;19940;-22
2023/05/12 11:39:13;;;;;;;;;;;;;;;;;;5033705;28;21258;-21
2023/05/12 11:41:39;;;;;;;;;;;;;;;;;;5035353;28;19920;-23
2023/05/12 11:44:05;;;;;;;;;;;;;;;;;;5035494;28;19909;-21
2023/05/12 11:46:31;;;;;;;;;;;;;;;;;;5035718;28;19909;-20
2023/05/12 11:48:57;;;;;;;;;;;;;;;;;;5034230;28;19992;-21
2023/05/12 11:51:23;;;;;;;;;;;;;;;;;;5035264;28;19910;-21
2023/05/12 11:53:49;;;;;;;;;;;;;;;;;;5034300;28;19909;-20
2023/05/12 11:56:15;;;;;;;;;;;;;;;;;;5035385;28;19913;-23
2023/05/12 11:58:41;;;;;;;;;;;;;;;;;;5034229;28;19909;-20
2023/05/12 12:01:07;;;;;;;;;;;;;;;;;;5035155;28;20328;-20
2023/05/12 12:03:33;;;;;;;;;;;;;;;;;;5034798;28;19921;-20
2023/05/12 12:06:00;;;;;;;;;;;;;;;;;;5034014;28;20023;-20
2023/05/12 12:08:26;;;;;;;;;;;;;;;;;;5035087;28;19928;-23
2023/05/12 12:10:51;;;;;;;;;;;;;;;;;;5033808;28;20007;-23
2023/05/12 12:13:17;;;;;;;;;;;;;;;;;;5034723;28;19909;-21
2023/05/12 12:15:43;;;;;;;;;;;;;;;;;;5034878;28;19909;-22
2023/05/12 12:18:09;;;;;;;;;;;;;;;;;;5035273;28;19909;-20
2023/05/12 12:20:35;;;;;;;;;;;;;;;;;;5033558;28;20003;-21
2023/05/12 12:23:01;;;;;;;;;;;;;;;;;;5034773;28;19931;-21
2023/05/12 12:25:27;;;;;;;;;;;;;;;;;;5034760;28;20016;-22
2023/05/12 12:27:53;;;;;;;;;;;;;;;;;;5033445;28;19909;-21
2023/05/12 12:30:20;;;;;;;;;;;;;;;;;;5034320;28;19967;-22
2023/05/12 12:32:46;;;;;;;;;;;;;;;;;;5034454;28;19924;-20
2023/05/12 12:35:12;;;;;;;;;;;;;;;;;;5034523;28;20370;-21
2023/05/12 12:37:38;;;;;;;;;;;;;;;;;;5034609;28;19992;-22
2023/05/12 12:40:06;;;;;;;;;;;;;;;;;;5034507;28;20006;-22
2023/05/12 12:42:33;;;;;;;;;;;;;;;;;;5034122;28;20011;-21
2023/05/12 12:44:59;;;;;;;;;;;;;;;;;;5034225;28;19909;-22
2023/05/12 12:47:25;;;;;;;;;;;;;;;;;;5034436;28;20000;-22
2023/05/12 12:49:51;;;;;;;;;;;;;;;;;;5034359;28;19917;-21
2023/05/12 12:52:17;;;;;;;;;;;;;;;;;;5034363;28;20256;-22
2023/05/12 12:54:43;;;;;;;;;;;;;;;;;;5034254;28;19910;-20
2023/05/12 12:57:09;;;;;;;;;;;;;;;;;;5034304;28;19996;-21
2023/05/12 12:59:36;;;;;;;;;;;;;;;;;;5034069;28;20272;-21
2023/05/12 13:02:02;;;;;;;;;;;;;;;;;;5034064;28;20221;-22
2023/05/12 13:04:28;;;;;;;;;;;;;;;;;;5033937;28;19982;-21
2023/05/12 13:06:53;;;;;;;;;;;;;;;;;;5032895;28;19920;-21
2023/05/12 13:09:19;;;;;;;;;;;;;;;;;;5034059;28;19913;-23
2023/05/12 13:11:46;;;;;;;;;;;;;;;;;;5032944;28;19924;-22
2023/05/12 13:14:12;;;;;;;;;;;;;;;;;;5034353;28;19999;-23
2023/05/12 13:16:37;;;;;;;;;;;;;;;;;;5034239;28;19947;-21
2023/05/12 13:19:03;;;;;;;;;;;;;;;;;;5034079;28;19909;-20
2023/05/12 13:21:29;;;;;;;;;;;;;;;;;;5034217;28;19909;-21
2023/05/12 13:23:55;;;;;;;;;;;;;;;;;;5034037;28;20004;-23
2023/05/12 13:26:22;;;;;;;;;;;;;;;;;;5034305;28;19909;-21
2023/05/12 13:28:48;;;;;;;;;;;;;;;;;;5034000;28;19944;-22
2023/05/12 13:31:14;;;;;;;;;;;;;;;;;;5033814;28;20311;-21
2023/05/12 13:33:40;;;;;;;;;;;;;;;;;;5037668;28;19975;-21
2023/05/12 13:36:06;;;;;;;;;;;;;;;;;;5037921;28;19913;-21
2023/05/12 13:38:32;;;;;;;;;;;;;;;;;;5037878;28;19910;-21
2023/05/12 13:40:58;;;;;;;;;;;;;;;;;;5037993;28;20339;-23
2023/05/12 13:43:24;;;;;;;;;;;;;;;;;;5037971;28;19910;-23
2023/05/12 13:45:50;;;;;;;;;;;;;;;;;;5037894;28;20059;-21
2023/05/12 13:48:16;;;;;;;;;;;;;;;;;;5037576;28;19979;-21
2023/05/12 13:50:42;;;;;;;;;;;;;;;;;;5037557;28;19943;-21
2023/05/12 13:53:08;;;;;;;;;;;;;;;;;;5037515;28;20427;-21
2023/05/12 13:55:37;;;;;;;;;;;;;;;;;;5037480;28;19909;-24
2023/05/12 13:58:03;;;;;;;;;;;;;;;;;;5037549;28;19940;-21
2023/05/12 14:00:29;;;;;;;;;;;;;;;;;;5037810;28;20328;-22
2023/05/12 14:02:56;;;;;;;;;;;;;;;;;;5036067;28;19924;-23
2023/05/12 14:05:22;;;;;;;;;;;;;;;;;;5037294;28;19909;-24
2023/05/12 14:07:48;;;;;;;;;;;;;;;;;;5037301;28;19913;-21
2023/05/12 14:10:14;;;;;;;;;;;;;;;;;;5036012;28;19913;-21
2023/05/12 14:12:41;;;;;;;;;;;;;;;;;;5037008;28;19909;-21
2023/05/12 14:15:07;;;;;;;;;;;;;;;;;;5037200;28;19955;-22
2023/05/12 14:17:33;;;;;;;;;;;;;;;;;;5036312;28;20315;-23
2023/05/12 14:20:00;;;;;;;;;;;;;;;;;;5037014;28;19987;-23
2023/05/12 14:22:26;;;;;;;;;;;;;;;;;;5037084;28;19917;-22
2023/05/12 14:24:52;;;;;;;;;;;;;;;;;;5037024;28;19920;-22
2023/05/12 14:27:18;;;;;;;;;;;;;;;;;;5037306;28;20313;-21
2023/05/12 14:29:44;;;;;;;;;;;;;;;;;;5037238;28;20218;-20
2023/05/12 14:32:11;;;;;;;;;;;;;;;;;;5035797;28;19909;-21
2023/05/12 14:34:37;;;;;;;;;;;;;;;;;;5037086;28;19921;-20
2023/05/12 14:37:03;;;;;;;;;;;;;;;;;;5037090;28;19909;-22
2023/05/12 14:39:29;;;;;;;;;;;;;;;;;;5037014;28;20008;-22
2023/05/12 14:41:55;;;;;;;;;;;;;;;;;;5036695;28;20012;-22
2023/05/12 14:44:21;;;;;;;;;;;;;;;;;;5035235;28;19920;-22
2023/05/12 14:46:47;;;;;;;;;;;;;;;;;;5036599;28;19944;-20
2023/05/12 14:49:13;;;;;;;;;;;;;;;;;;5035112;28;20070;-20
2023/05/12 14:51:39;;;;;;;;;;;;;;;;;;5036786;28;19908;-22
2023/05/12 14:54:05;;;;;;;;;;;;;;;;;;5037182;28;19913;-21
2023/05/12 14:56:32;;;;;;;;;;;;;;;;;;5036442;28;19909;-22
2023/05/12 14:58:58;;;;;;;;;;;;;;;;;;5036647;28;19909;-22
2023/05/12 15:01:24;;;;;;;;;;;;;;;;;;5035451;28;19940;-20
2023/05/12 15:03:53;;;;;;;;;;;;;;;;;;5036059;28;20436;-21
2023/05/12 15:06:19;;;;;;;;;;;;;;;;;;5036400;28;20314;-21
2023/05/12 15:08:45;;;;;;;;;;;;;;;;;;5036578;28;19945;-21
2023/05/12 15:11:10;;;;;;;;;;;;;;;;;;5035151;28;19914;-20
2023/05/12 15:13:36;;;;;;;;;;;;;;;;;;5035913;28;19909;-22
2023/05/12 15:16:03;;;;;;;;;;;;;;;;;;5035758;28;19932;-22
2023/05/12 15:18:29;;;;;;;;;;;;;;;;;;5035819;28;20312;-21
2023/05/12 15:20:55;;;;;;;;;;;;;;;;;;5035809;28;19978;-21
2023/05/12 15:23:21;;;;;;;;;;;;;;;;;;5034609;28;19909;-23
2023/05/12 15:25:47;;;;;;;;;;;;;;;;;;5035697;28;20343;-22
2023/05/12 15:28:13;;;;;;;;;;;;;;;;;;5034652;28;20401;-22
2023/05/12 15:30:39;;;;;;;;;;;;;;;;;;5035562;28;20255;-21
2023/05/12 15:33:05;;;;;;;;;;;;;;;;;;5035490;28;19909;-21
2023/05/12 15:35:31;;;;;;;;;;;;;;;;;;5035573;28;19909;-21
2023/05/12 15:37:58;;;;;;;;;;;;;;;;;;5035861;28;20378;-21
2023/05/12 15:40:23;;;;;;;;;;;;;;;;;;5035636;28;20035;-23
2023/05/12 15:42:49;;;;;;;;;;;;;;;;;;5035540;28;19917;-33
2023/05/12 15:45:15;;;;;;;;;;;;;;;;;;5035496;28;19913;-21
2023/05/12 15:47:41;;;;;;;;;;;;;;;;;;5035537;28;19924;-22
2023/05/12 15:50:09;;;;;;;;;;;;;;;;;;5035588;28;20005;-21
2023/05/12 15:52:35;;;;;;;;;;;;;;;;;;5035510;28;19909;-21
2023/05/12 15:55:01;;;;;;;;;;;;;;;;;;5034927;28;19910;-22
2023/05/12 15:57:27;;;;;;;;;;;;;;;;;;5034392;28;20318;-21
2023/05/12 15:59:53;;;;;;;;;;;;;;;;;;5035287;28;19919;-21
2023/05/12 16:02:19;;;;;;;;;;;;;;;;;;5035462;28;19909;-20
2023/05/12 16:04:45;;;;;;;;;;;;;;;;;;5034936;28;20366;-21
2023/05/12 16:07:11;;;;;;;;;;;;;;;;;;5035219;28;19920;-22
2023/05/12 16:09:36;;;;;;;;;;;;;;;;;;5034031;28;20032;-21
2023/05/12 16:12:03;;;;;;;;;;;;;;;;;;5034995;28;19909;-22
2023/05/12 16:14:29;;;;;;;;;;;;;;;;;;5035100;28;20252;-22
2023/05/12 16:16:55;;;;;;;;;;;;;;;;;;5035004;28;19916;-21
2023/05/12 16:19:21;;;;;;;;;;;;;;;;;;5035231;28;20350;-20
2023/05/12 16:21:47;;;;;;;;;;;;;;;;;;5034701;28;19932;-21
2023/05/12 16:24:13;;;;;;;;;;;;;;;;;;5034662;28;19948;-22
2023/05/12 16:26:40;;;;;;;;;;;;;;;;;;5033305;28;19909;-22
2023/05/12 16:29:06;;;;;;;;;;;;;;;;;;5034858;28;19967;-22
2023/05/12 16:31:32;;;;;;;;;;;;;;;;;;5034581;28;20259;-23
2023/05/12 16:33:57;;;;;;;;;;;;;;;;;;5034634;28;19909;-20
2023/05/12 16:36:23;;;;;;;;;;;;;;;;;;5034700;28;19915;-20